Time;durP1;ratioP1;P1;durP2;ratioP2;P2;SDS_P1;SDS_P2;PMS_P1;PMS_P2;Temp;Humidity;BMP_temperature;BMP_pressure;BME280_temperature;BME280_humidity;BME280_pressure;Samples;Min_cycle;Max_cycle;Signal;HPM_P1;HPM_P2
2021/06/02 00:00:09;;;;;;;4.57;4.17;;;19.90;23.90;;;;;;4973507;28;20765;-75
2021/06/02 00:02:47;;;;;;;4.60;4.40;;;19.90;23.90;;;;;;4973665;28;20472;-75
2021/06/02 00:05:14;;;;;;;4.87;4.47;;;19.90;24.50;;;;;;4973224;28;20420;-75
2021/06/02 00:07:41;;;;;;;4.30;4.10;;;19.90;23.90;;;;;;4972585;28;20462;-75
2021/06/02 00:10:08;;;;;;;4.43;4.03;;;19.90;24.00;;;;;;4973435;28;20441;-75
2021/06/02 00:12:34;;;;;;;3.63;3.43;;;19.90;24.00;;;;;;4973205;28;20825;-76
2021/06/02 00:15:01;;;;;;;4.40;4.20;;;19.90;24.00;;;;;;4973143;28;20418;-75
2021/06/02 00:17:26;;;;;;;3.90;3.70;;;19.90;24.00;;;;;;4973131;28;20186;-76
2021/06/02 00:19:52;;;;;;;3.93;3.73;;;19.90;24.00;;;;;;4973099;28;20497;-75
2021/06/02 00:22:18;;;;;;;4.17;3.90;;;19.90;24.00;;;;;;4973357;28;20249;-75
2021/06/02 00:24:43;;;;;;;4.37;4.07;;;19.80;24.00;;;;;;4973475;28;20661;-76
2021/06/02 00:27:11;;;;;;;4.40;4.10;;;19.80;24.00;;;;;;4972937;28;20202;-76
2021/06/02 00:29:39;;;;;;;4.60;4.30;;;19.90;24.10;;;;;;4973597;28;20225;-75
2021/06/02 00:32:06;;;;;;;3.80;3.60;;;19.80;24.00;;;;;;4973177;28;20434;-76
2021/06/02 00:34:33;;;;;;;3.73;3.60;;;19.90;24.60;;;;;;4973258;28;20436;-75
2021/06/02 00:36:59;;;;;;;4.30;4.10;;;19.80;24.00;;;;;;4973081;28;20466;-76
2021/06/02 00:39:25;;;;;;;4.00;3.70;;;19.80;24.00;;;;;;4973402;28;20418;-76
2021/06/02 00:41:52;;;;;;;4.20;4.00;;;19.80;24.00;;;;;;4972946;28;20813;-75
2021/06/02 00:44:19;;;;;;;3.70;3.50;;;19.80;24.10;;;;;;4972098;28;20178;-75
2021/06/02 00:46:46;;;;;;;3.93;3.73;;;19.80;24.10;;;;;;4972898;28;20417;-75
2021/06/02 00:49:16;;;;;;;4.20;4.00;;;19.80;24.10;;;;;;4973680;28;20476;-76
2021/06/02 00:51:41;;;;;;;3.90;3.60;;;19.80;24.10;;;;;;4973109;28;20477;-75
2021/06/02 00:54:08;;;;;;;3.93;3.73;;;19.80;24.10;;;;;;4973392;28;20418;-75
2021/06/02 00:56:42;;;;;;;4.30;4.00;;;19.80;24.10;;;;;;4973006;28;20179;-76
2021/06/02 00:59:09;;;;;;;4.03;3.77;;;19.80;24.20;;;;;;4973452;28;20417;-75
2021/06/02 01:01:35;;;;;;;4.10;3.90;;;19.80;24.20;;;;;;4973369;28;20862;-75
2021/06/02 01:04:03;;;;;;;3.80;3.70;;;19.80;24.20;;;;;;4974589;28;20442;-75
2021/06/02 01:06:33;;;;;;;4.00;3.80;;;19.80;24.20;;;;;;4974678;28;20983;-75
2021/06/02 01:09:01;;;;;;;3.93;3.73;;;19.80;24.20;;;;;;4973797;28;20553;-75
2021/06/02 01:11:28;;;;;;;3.70;3.60;;;19.80;24.20;;;;;;4973330;28;20421;-75
2021/06/02 01:13:57;;;;;;;4.17;3.97;;;19.80;24.30;;;;;;4973377;28;20901;-75
2021/06/02 01:16:27;;;;;;;4.10;3.90;;;19.80;24.30;;;;;;4972811;28;20776;-76
2021/06/02 01:18:52;;;;;;;4.00;3.77;;;19.80;24.30;;;;;;4974023;28;20410;-76
2021/06/02 01:21:23;;;;;;;3.93;3.73;;;19.80;24.30;;;;;;4976802;28;20421;-75
2021/06/02 01:23:56;;;;;;;4.33;4.13;;;19.80;24.90;;;;;;4976660;28;20373;-76
2021/06/02 01:26:23;;;;;;;4.17;3.97;;;19.80;24.30;;;;;;4958780;28;20429;-75
2021/06/02 01:28:50;;;;;;;4.53;4.23;;;19.80;24.30;;;;;;4976274;28;21102;-75
2021/06/02 01:31:26;;;;;;;3.23;3.13;;;19.80;24.30;;;;;;4976340;28;20414;-76
2021/06/02 01:34:06;;;;;;;3.70;3.60;;;19.80;24.40;;;;;;4976319;28;20528;-75
2021/06/02 01:36:58;;;;;;;4.07;3.87;;;19.80;24.40;;;;;;4975952;28;20472;-76
2021/06/02 01:39:50;;;;;;;4.50;4.30;;;19.80;24.40;;;;;;4975279;28;20988;-76
2021/06/02 01:42:28;;;;;;;4.20;4.00;;;19.80;24.40;;;;;;4976318;28;20445;-76
2021/06/02 01:45:21;;;;;;;4.37;4.17;;;19.80;24.40;;;;;;4976247;28;20430;-75
2021/06/02 01:48:07;;;;;;;3.97;3.70;;;19.80;24.40;;;;;;4975927;28;20541;-75
2021/06/02 01:51:10;;;;;;;4.53;4.23;;;19.70;24.40;;;;;;4976398;28;20414;-76
2021/06/02 01:53:47;;;;;;;4.40;4.10;;;19.80;24.50;;;;;;4976050;28;20548;-75
2021/06/02 02:09:53;;;;;;;3.90;3.70;;;19.70;24.50;;;;;;4975902;28;20509;-76
2021/06/02 02:12:37;;;;;;;4.00;3.80;;;19.70;24.50;;;;;;4958295;28;20457;-76
2021/06/02 02:15:20;;;;;;;4.57;4.27;;;19.70;24.50;;;;;;4975567;28;20429;-75
2021/06/02 02:18:19;;;;;;;3.60;3.50;;;19.70;24.50;;;;;;4975320;28;20925;-75
2021/06/02 02:21:01;;;;;;;4.00;3.80;;;19.70;24.50;;;;;;4975715;28;20464;-76
2021/06/02 02:24:04;;;;;;;3.70;3.60;;;19.70;24.60;;;;;;4974313;28;20983;-76
2021/06/02 02:26:57;;;;;;;4.60;4.40;;;19.70;24.50;;;;;;4938865;28;20443;-75
2021/06/02 02:29:42;;;;;;;3.80;3.60;;;19.70;24.60;;;;;;4975395;28;20521;-76
2021/06/02 02:32:18;;;;;;;4.00;3.80;;;19.70;24.70;;;;;;4974352;28;20501;-76
2021/06/02 02:34:50;;;;;;;3.50;3.40;;;19.70;24.70;;;;;;4975444;28;20410;-75
2021/06/02 02:37:35;;;;;;;3.93;3.73;;;19.70;24.70;;;;;;4974981;28;20441;-76
2021/06/02 02:40:08;;;;;;;3.93;3.73;;;19.70;24.60;;;;;;4975333;28;20464;-75
2021/06/02 02:42:50;;;;;;;4.43;4.23;;;19.70;24.70;;;;;;4974586;28;20450;-76
2021/06/02 02:45:32;;;;;;;3.90;3.70;;;19.80;24.80;;;;;;4974730;28;21017;-76
2021/06/02 02:48:24;;;;;;;4.30;4.10;;;19.80;24.70;;;;;;4974815;28;20465;-75
2021/06/02 02:51:23;;;;;;;4.27;4.07;;;19.80;24.80;;;;;;4972554;28;20834;-76
2021/06/02 02:53:54;;;;;;;4.10;3.90;;;19.80;24.80;;;;;;4975066;28;20434;-75
2021/06/02 02:56:28;;;;;;;3.60;3.50;;;19.80;24.80;;;;;;4974629;28;20429;-75
2021/06/02 02:59:04;;;;;;;3.97;3.77;;;19.80;24.80;;;;;;4974883;28;20421;-75
2021/06/02 03:01:50;;;;;;;3.87;3.67;;;19.80;24.70;;;;;;4974656;28;20892;-76
2021/06/02 03:04:22;;;;;;;4.13;3.93;;;19.80;24.80;;;;;;4974878;28;20777;-76
2021/06/02 03:06:53;;;;;;;4.23;3.93;;;19.80;24.70;;;;;;4974780;28;20831;-75
2021/06/02 03:09:39;;;;;;;3.37;3.17;;;19.80;24.70;;;;;;4974790;28;20524;-76
2021/06/02 03:12:37;;;;;;;3.63;3.50;;;19.80;24.70;;;;;;4974772;28;20430;-76
2021/06/02 03:15:12;;;;;;;4.10;3.90;;;19.80;24.90;;;;;;4974819;28;20464;-76
2021/06/02 03:17:50;;;;;;;3.80;3.60;;;19.70;24.70;;;;;;4974743;28;20436;-75
2021/06/02 03:20:27;;;;;;;3.60;3.50;;;19.70;24.90;;;;;;4973164;28;20520;-76
2021/06/02 03:23:16;;;;;;;3.93;3.73;;;19.70;24.80;;;;;;4974313;28;20448;-76
2021/06/02 03:25:44;;;;;;;3.33;3.23;;;19.70;24.90;;;;;;4954116;28;20448;-76
2021/06/02 03:28:12;;;;;;;3.40;3.30;;;19.70;24.80;;;;;;4974111;28;20541;-76
2021/06/02 03:30:47;;;;;;;4.37;4.10;;;19.70;24.90;;;;;;4974177;28;20445;-75
2021/06/02 03:33:50;;;;;;;3.80;3.60;;;19.70;24.90;;;;;;4974195;28;21012;-76
2021/06/02 03:36:47;;;;;;;3.93;3.73;;;19.70;24.90;;;;;;4974071;28;20413;-76
2021/06/02 03:39:45;;;;;;;3.63;3.53;;;19.70;24.90;;;;;;4974364;28;20769;-76
2021/06/02 03:42:45;;;;;;;3.43;3.33;;;19.70;24.90;;;;;;4973272;28;20453;-76
2021/06/02 03:45:29;;;;;;;3.83;3.63;;;19.70;24.90;;;;;;4964809;28;20471;-76
2021/06/02 03:48:33;;;;;;;3.90;3.70;;;19.70;24.90;;;;;;4971298;28;20458;-75
2021/06/02 03:51:01;;;;;;;3.83;3.63;;;19.70;24.90;;;;;;4959397;28;20481;-75
2021/06/02 03:53:43;;;;;;;3.40;3.30;;;19.70;24.90;;;;;;4950217;28;20509;-75
2021/06/02 03:56:42;;;;;;;3.40;3.30;;;19.70;24.90;;;;;;4963413;28;20429;-76
2021/06/02 03:59:22;;;;;;;3.70;3.60;;;19.70;25.00;;;;;;4971931;28;20429;-76
2021/06/02 04:01:51;;;;;;;3.70;3.60;;;19.70;25.00;;;;;;4961155;28;20429;-75
2021/06/02 04:04:29;;;;;;;4.50;4.30;;;19.70;25.00;;;;;;4966830;28;20423;-76
2021/06/02 04:07:04;;;;;;;3.93;3.73;;;19.70;25.60;;;;;;4966222;28;20968;-76
2021/06/02 04:09:59;;;;;;;4.07;3.87;;;19.70;25.00;;;;;;4973203;28;20515;-76
2021/06/02 04:12:34;;;;;;;3.93;3.73;;;19.70;25.00;;;;;;4966787;28;20956;-76
2021/06/02 04:15:04;;;;;;;3.20;3.10;;;19.70;25.10;;;;;;4973230;28;20417;-76
2021/06/02 04:17:32;;;;;;;3.90;3.80;;;19.60;25.00;;;;;;4973578;28;20412;-76
2021/06/02 04:20:01;;;;;;;4.07;3.87;;;19.60;25.00;;;;;;4973935;28;20410;-75
2021/06/02 04:22:29;;;;;;;4.03;3.87;;;19.70;25.10;;;;;;4973540;28;20441;-76
2021/06/02 04:24:56;;;;;;;4.03;3.83;;;19.60;25.00;;;;;;4973912;28;20438;-76
2021/06/02 04:27:23;;;;;;;3.63;3.43;;;19.60;25.00;;;;;;4973077;28;20954;-75
2021/06/02 04:29:51;;;;;;;4.10;3.90;;;19.60;25.00;;;;;;4974134;28;20457;-76
2021/06/02 04:32:18;;;;;;;4.67;4.40;;;19.70;25.30;;;;;;4974573;28;20442;-76
2021/06/02 04:34:45;;;;;;;5.13;4.80;;;19.80;25.30;;;;;;4974850;28;20418;-76
2021/06/02 04:37:11;;;;;;;5.80;5.23;;;19.80;25.60;;;;;;4973133;28;20491;-76
2021/06/02 04:39:42;;;;;;;5.80;5.23;;;19.80;25.60;;;;;;4973131;28;20432;-75
2021/06/02 04:42:10;;;;;;;5.70;5.20;;;19.90;25.40;;;;;;4972871;28;20511;-76
2021/06/02 04:44:37;;;;;;;5.87;5.57;;;19.90;25.60;;;;;;4965157;28;20491;-75
2021/06/02 04:47:04;;;;;;;5.63;5.20;;;19.90;25.60;;;;;;4966868;28;20518;-78
2021/06/02 04:49:48;;;;;;;7.00;6.33;;;19.90;25.60;;;;;;4971907;28;20536;-77
2021/06/02 04:52:32;;;;;;;4.97;4.70;;;19.90;25.60;;;;;;4972554;28;20441;-76
2021/06/02 04:55:25;;;;;;;6.10;5.50;;;19.90;25.50;;;;;;4975138;28;20465;-77
2021/06/02 04:58:12;;;;;;;5.70;5.40;;;19.90;25.40;;;;;;4964963;28;20424;-77
2021/06/02 05:00:50;;;;;;;5.90;5.50;;;20.00;25.30;;;;;;4972463;28;20425;-76
2021/06/02 05:03:21;;;;;;;6.43;5.93;;;20.00;25.60;;;;;;4958888;28;20460;-77
2021/06/02 05:06:14;;;;;;;6.70;6.20;;;20.00;25.60;;;;;;4976440;28;20470;-77
2021/06/02 05:08:57;;;;;;;7.57;6.63;;;20.00;25.90;;;;;;4961876;28;20469;-77
2021/06/02 05:12:00;;;;;;;7.40;6.67;;;20.10;26.20;;;;;;4974959;28;20508;-77
2021/06/02 05:14:35;;;;;;;7.37;6.77;;;20.10;26.00;;;;;;4976452;28;20464;-77
2021/06/02 05:17:36;;;;;;;32.67;7.80;;;20.10;26.10;;;;;;4958736;28;20410;-77
2021/06/02 05:20:24;;;;;;;10.53;7.50;;;20.10;26.20;;;;;;4976472;28;20501;-77
2021/06/02 05:23:20;;;;;;;7.50;6.77;;;20.10;26.50;;;;;;4976218;28;20430;-77
2021/06/02 05:26:06;;;;;;;7.30;6.80;;;20.20;26.60;;;;;;4969396;28;20432;-77
2021/06/02 05:28:56;;;;;;;7.47;6.97;;;20.20;26.70;;;;;;4976379;28;21058;-77
2021/06/02 05:31:46;;;;;;;6.77;6.23;;;20.20;27.00;;;;;;4958552;28;20413;-77
2021/06/02 05:34:55;;;;;;;7.60;7.00;;;20.20;26.80;;;;;;4976344;28;20413;-77
2021/06/02 05:37:44;;;;;;;6.93;6.37;;;20.20;26.80;;;;;;4975857;28;20414;-77
2021/06/02 05:40:22;;;;;;;7.17;6.57;;;20.20;26.40;;;;;;4976127;28;20433;-77
2021/06/02 05:43:15;;;;;;;7.30;6.03;;;20.20;26.30;;;;;;4975804;28;20448;-77
2021/06/02 05:46:13;;;;;;;6.97;6.37;;;20.20;26.40;;;;;;4975994;28;20414;-77
2021/06/02 05:49:19;;;;;;;8.17;6.43;;;20.20;26.70;;;;;;4975864;28;20457;-76
2021/06/02 05:52:02;;;;;;;6.70;6.00;;;20.10;26.40;;;;;;4976080;28;20414;-77
2021/06/02 05:54:58;;;;;;;6.73;6.13;;;20.10;26.10;;;;;;4975943;28;20406;-75
2021/06/02 05:57:26;;;;;;;5.50;5.10;;;20.00;26.20;;;;;;4968251;28;20461;-76
2021/06/02 06:00:04;;;;;;;6.27;5.20;;;20.00;26.20;;;;;;4956219;28;20473;-79
2021/06/02 06:02:41;;;;;;;5.10;4.60;;;20.00;26.00;;;;;;4975136;28;20444;-77
2021/06/02 06:05:24;;;;;;;5.63;5.10;;;20.10;25.90;;;;;;4974685;28;20768;-76
2021/06/02 06:08:14;;;;;;;5.60;4.20;;;20.10;25.70;;;;;;4974106;28;20462;-77
2021/06/02 06:10:58;;;;;;;5.63;4.67;;;20.00;25.40;;;;;;4975413;28;20438;-77
2021/06/02 06:14:01;;;;;;;4.83;4.50;;;20.10;25.50;;;;;;4975253;28;20542;-78
2021/06/02 06:17:04;;;;;;;4.70;4.30;;;20.10;25.40;;;;;;4974733;28;21133;-78
2021/06/02 06:19:30;;;;;;;6.63;4.23;;;20.10;25.40;;;;;;4973659;28;20430;-77
2021/06/02 06:22:32;;;;;;;4.93;4.53;;;20.10;24.40;;;;;;4973370;28;20815;-77
2021/06/02 06:25:13;;;;;;;4.50;4.20;;;20.10;25.30;;;;;;4936260;29;20195;-78
2021/06/02 06:28:12;;;;;;;5.40;4.93;;;20.10;25.20;;;;;;4936652;29;20825;-76
2021/06/02 06:30:40;;;;;;;4.50;4.10;;;20.10;25.20;;;;;;4950669;28;20423;-76
2021/06/02 06:33:14;;;;;;;4.60;4.20;;;20.10;25.10;;;;;;4975591;28;20828;-77
2021/06/02 06:35:43;;;;;;;6.00;4.23;;;20.10;25.10;;;;;;4957550;28;20418;-77
2021/06/02 06:38:19;;;;;;;5.03;4.53;;;20.10;25.00;;;;;;4975627;28;20422;-77
2021/06/02 06:40:48;;;;;;;4.60;4.20;;;20.10;24.80;;;;;;4975291;28;20803;-77
2021/06/02 06:43:15;;;;;;;4.03;3.73;;;20.10;24.80;;;;;;4949359;28;20458;-77
2021/06/02 06:45:43;;;;;;;5.37;4.97;;;20.10;25.00;;;;;;4971139;28;20429;-76
2021/06/02 06:48:24;;;;;;;5.20;4.70;;;20.10;25.00;;;;;;4974672;28;20457;-76
2021/06/02 06:50:54;;;;;;;4.90;4.40;;;20.10;24.90;;;;;;4975204;28;20418;-76
2021/06/02 06:53:21;;;;;;;10.33;5.50;;;20.10;24.90;;;;;;4974731;28;20426;-76
2021/06/02 06:55:50;;;;;;;5.63;5.07;;;20.10;24.90;;;;;;4974502;28;20497;-77
2021/06/02 06:58:15;;;;;;;5.73;5.23;;;20.20;25.00;;;;;;4974689;28;20420;-77
2021/06/02 07:00:43;;;;;;;16.93;6.80;;;20.20;24.90;;;;;;4974502;28;20932;-77
2021/06/02 07:03:09;;;;;;;9.37;6.33;;;20.20;24.90;;;;;;4975365;28;20285;-77
2021/06/02 07:05:35;;;;;;;6.50;6.00;;;20.20;24.80;;;;;;4975138;28;20536;-77
2021/06/02 07:08:04;;;;;;;6.00;5.50;;;20.20;24.80;;;;;;4975947;28;20468;-77
2021/06/02 07:10:30;;;;;;;9.10;5.87;;;20.20;24.80;;;;;;4974899;28;20409;-77
2021/06/02 07:12:56;;;;;;;5.57;5.20;;;20.20;24.80;;;;;;4974930;28;20434;-76
2021/06/02 07:15:24;;;;;;;6.27;5.53;;;20.20;24.80;;;;;;4975773;28;20228;-77
2021/06/02 07:17:49;;;;;;;7.73;5.47;;;20.20;24.70;;;;;;4974359;28;20414;-76
2021/06/02 07:20:21;;;;;;;5.70;5.20;;;20.20;24.70;;;;;;4976714;28;20913;-79
2021/06/02 07:22:48;;;;;;;6.10;5.60;;;20.20;24.70;;;;;;4975394;28;20242;-78
2021/06/02 07:25:18;;;;;;;6.27;5.73;;;20.20;24.60;;;;;;4974750;28;20434;-77
2021/06/02 07:27:47;;;;;;;6.63;5.37;;;20.20;24.60;;;;;;4975058;28;20454;-77
2021/06/02 07:30:15;;;;;;;5.63;5.33;;;20.20;24.60;;;;;;4975295;28;20476;-78
2021/06/02 07:32:42;;;;;;;6.30;5.80;;;20.20;24.70;;;;;;4974800;28;20805;-77
2021/06/02 07:35:08;;;;;;;5.57;5.07;;;20.20;24.70;;;;;;4974172;28;20913;-76
2021/06/02 07:37:34;;;;;;;5.23;4.93;;;20.20;24.70;;;;;;4975376;28;20414;-75
2021/06/02 07:40:00;;;;;;;6.43;5.43;;;20.20;24.60;;;;;;4975661;28;20501;-75
2021/06/02 07:42:26;;;;;;;5.23;4.93;;;20.20;24.60;;;;;;4975296;28;20453;-77
2021/06/02 07:44:53;;;;;;;5.93;5.43;;;20.20;24.60;;;;;;4974532;28;20178;-76
2021/06/02 07:47:19;;;;;;;5.40;5.00;;;20.20;24.60;;;;;;4962821;28;20422;-77
2021/06/02 07:49:44;;;;;;;5.60;5.20;;;20.20;24.60;;;;;;4956240;29;20422;-77
2021/06/02 07:52:10;;;;;;;6.00;5.50;;;20.20;24.70;;;;;;4955566;29;20205;-76
2021/06/02 07:54:35;;;;;;;6.03;5.43;;;20.20;24.70;;;;;;4955689;29;20205;-76
2021/06/02 07:57:01;;;;;;;5.53;5.13;;;20.30;24.80;;;;;;4955140;29;20179;-75
2021/06/02 07:59:26;;;;;;;5.20;4.80;;;20.20;24.70;;;;;;4955037;29;20604;-77
2021/06/02 08:01:52;;;;;;;5.00;4.60;;;20.20;24.70;;;;;;4956148;29;20210;-77
2021/06/02 08:04:17;;;;;;;5.50;5.20;;;20.30;24.80;;;;;;4956873;29;20190;-76
2021/06/02 08:06:43;;;;;;;5.43;5.13;;;20.30;24.80;;;;;;4957363;29;20573;-76
2021/06/02 08:09:11;;;;;;;5.87;5.37;;;20.30;24.80;;;;;;4955815;29;20316;-76
2021/06/02 08:11:36;;;;;;;6.37;5.77;;;20.30;24.80;;;;;;4956207;29;20167;-78
2021/06/02 08:14:02;;;;;;;6.20;5.80;;;20.30;24.70;;;;;;4955701;29;20418;-76
2021/06/02 08:16:27;;;;;;;7.53;5.30;;;20.30;24.80;;;;;;4954372;29;20691;-77
2021/06/02 08:18:53;;;;;;;5.70;5.20;;;20.30;24.80;;;;;;4953953;29;20531;-75
2021/06/02 08:21:19;;;;;;;6.60;5.47;;;20.30;24.80;;;;;;4953891;29;20742;-77
2021/06/02 08:23:45;;;;;;;5.87;5.37;;;20.30;24.80;;;;;;4953620;29;20203;-76
2021/06/02 08:26:10;;;;;;;5.90;5.33;;;20.30;24.80;;;;;;4953457;29;20426;-77
2021/06/02 08:28:36;;;;;;;6.30;5.90;;;20.30;24.80;;;;;;4935783;29;20203;-76
2021/06/02 08:31:02;;;;;;;7.13;6.53;;;20.30;24.70;;;;;;4953575;29;20543;-75
2021/06/02 08:33:28;;;;;;;5.57;5.27;;;20.30;24.70;;;;;;4953711;29;20651;-75
2021/06/02 08:35:54;;;;;;;4.90;4.60;;;20.40;24.80;;;;;;4953457;29;20490;-75
2021/06/02 08:38:20;;;;;;;5.50;5.00;;;20.40;24.70;;;;;;4953724;29;20258;-75
2021/06/02 08:40:45;;;;;;;5.33;4.93;;;20.40;24.60;;;;;;4954398;29;21076;-76
2021/06/02 08:43:12;;;;;;;5.67;5.27;;;20.40;24.60;;;;;;4966988;28;20210;-75
2021/06/02 08:45:37;;;;;;;5.53;5.13;;;20.40;24.60;;;;;;4955326;28;20202;-76
2021/06/02 08:48:04;;;;;;;5.60;5.13;;;20.40;24.50;;;;;;4954977;28;20949;-76
2021/06/02 08:50:30;;;;;;;4.57;4.20;;;20.40;24.50;;;;;;4953603;29;20231;-76
2021/06/02 08:52:59;;;;;;;5.80;5.30;;;20.40;24.30;;;;;;4953436;29;20866;-76
2021/06/02 08:55:25;;;;;;;5.07;4.77;;;20.40;24.40;;;;;;4953122;29;20177;-76
2021/06/02 08:57:52;;;;;;;5.70;5.10;;;20.40;25.00;;;;;;4953452;28;20865;-76
2021/06/02 09:00:20;;;;;;;5.67;5.17;;;20.40;24.30;;;;;;4953977;29;20179;-77
2021/06/02 09:02:47;;;;;;;6.20;5.67;;;20.40;24.20;;;;;;4953424;29;21048;-77
2021/06/02 09:05:15;;;;;;;5.70;5.30;;;20.40;24.40;;;;;;4953442;29;20447;-76
2021/06/02 09:07:42;;;;;;;5.53;5.23;;;20.50;24.30;;;;;;4953299;29;20450;-77
2021/06/02 09:10:10;;;;;;;8.00;6.00;;;20.50;24.10;;;;;;4953347;29;20442;-77
2021/06/02 09:12:39;;;;;;;7.50;5.70;;;20.50;24.00;;;;;;4953357;29;20478;-77
2021/06/02 09:15:08;;;;;;;5.27;4.97;;;20.50;24.00;;;;;;4953248;29;20443;-77
2021/06/02 09:17:52;;;;;;;5.27;4.93;;;20.50;24.00;;;;;;4953418;29;20502;-77
2021/06/02 09:20:41;;;;;;;5.13;4.83;;;20.50;24.00;;;;;;4953238;29;20407;-76
2021/06/02 09:23:25;;;;;;;5.50;5.10;;;20.50;24.00;;;;;;4953209;29;20455;-77
2021/06/02 09:25:50;;;;;;;5.30;4.80;;;20.50;24.20;;;;;;4953591;29;20431;-78
2021/06/02 09:28:16;;;;;;;5.33;4.90;;;20.50;24.10;;;;;;4954286;29;20960;-76
2021/06/02 09:30:41;;;;;;;5.10;4.77;;;20.50;24.00;;;;;;4954218;29;20178;-77
2021/06/02 09:33:08;;;;;;;5.97;5.37;;;20.50;24.10;;;;;;4937340;29;20191;-77
2021/06/02 09:35:39;;;;;;;5.47;5.07;;;20.50;23.90;;;;;;4953396;29;20232;-77
2021/06/02 09:38:06;;;;;;;5.67;5.13;;;20.50;23.90;;;;;;4953781;29;20430;-78
2021/06/02 09:40:33;;;;;;;6.43;5.43;;;20.60;24.00;;;;;;4955680;28;20892;-77
2021/06/02 09:42:58;;;;;;;5.00;4.80;;;20.50;23.90;;;;;;4956874;29;20835;-77
2021/06/02 09:45:25;;;;;;;5.47;4.90;;;20.60;24.00;;;;;;4956982;29;20410;-77
2021/06/02 09:47:53;;;;;;;5.17;4.90;;;20.60;24.20;;;;;;4956340;29;20342;-76
2021/06/02 09:50:32;;;;;;;5.77;5.37;;;20.60;24.10;;;;;;4957324;29;20505;-76
2021/06/02 09:52:59;;;;;;;5.67;5.27;;;20.60;24.10;;;;;;4956331;29;20438;-76
2021/06/02 09:55:38;;;;;;;5.30;5.00;;;20.60;24.10;;;;;;4956337;29;20493;-76
2021/06/02 09:58:07;;;;;;;5.23;4.93;;;20.60;24.10;;;;;;4956379;29;20418;-77
2021/06/02 10:00:58;;;;;;;5.43;5.03;;;20.60;24.00;;;;;;4956697;29;20430;-77
2021/06/02 10:03:30;;;;;;;5.63;5.13;;;20.60;24.00;;;;;;4953860;29;20446;-77
2021/06/02 10:05:56;;;;;;;5.50;5.10;;;20.60;23.90;;;;;;4956285;29;20426;-77
2021/06/02 10:08:33;;;;;;;5.13;4.83;;;20.60;23.60;;;;;;4956574;29;20954;-78
2021/06/02 10:11:13;;;;;;;6.10;5.50;;;20.60;23.40;;;;;;4956805;29;20418;-77
2021/06/02 10:13:39;;;;;;;4.63;4.33;;;20.70;23.50;;;;;;4954569;29;20548;-77
2021/06/02 10:16:06;;;;;;;4.83;4.53;;;20.70;23.40;;;;;;4956319;29;20411;-77
2021/06/02 10:18:34;;;;;;;5.80;5.30;;;20.70;23.40;;;;;;4956368;29;20422;-77
2021/06/02 10:21:03;;;;;;;5.67;5.03;;;20.70;23.30;;;;;;4957068;29;20443;-77
2021/06/02 10:23:36;;;;;;;5.60;5.17;;;20.70;23.40;;;;;;4958245;29;20439;-77
2021/06/02 10:26:06;;;;;;;5.07;4.73;;;20.70;23.50;;;;;;4957632;29;20419;-78
2021/06/02 10:28:32;;;;;;;4.73;4.53;;;20.70;23.50;;;;;;4958221;29;20467;-75
2021/06/02 10:30:59;;;;;;;4.53;4.33;;;20.70;23.70;;;;;;4956116;29;20477;-76
2021/06/02 10:33:25;;;;;;;5.50;5.20;;;20.70;23.80;;;;;;4956753;28;20534;-77
2021/06/02 10:35:51;;;;;;;4.70;4.40;;;20.60;23.70;;;;;;4957346;29;20775;-77
2021/06/02 10:38:17;;;;;;;5.10;4.80;;;20.60;23.80;;;;;;4974254;28;20430;-77
2021/06/02 10:40:44;;;;;;;4.87;4.57;;;20.60;23.80;;;;;;4976939;28;20892;-78
2021/06/02 10:43:20;;;;;;;4.90;4.60;;;20.50;24.40;;;;;;4975490;28;20426;-78
2021/06/02 10:46:06;;;;;;;4.63;4.33;;;20.60;24.00;;;;;;4976511;28;20414;-77
2021/06/02 10:48:40;;;;;;;4.60;4.40;;;20.50;23.90;;;;;;4956910;29;21044;-76
2021/06/02 10:51:06;;;;;;;5.90;5.37;;;20.50;24.00;;;;;;4956987;28;20418;-77
2021/06/02 10:53:32;;;;;;;5.10;4.80;;;20.50;24.00;;;;;;4957703;29;20469;-78
2021/06/02 10:56:00;;;;;;;5.23;4.63;;;20.50;24.10;;;;;;4960080;28;20178;-77
2021/06/02 10:58:30;;;;;;;4.67;4.40;;;20.50;24.10;;;;;;4972251;28;20517;-78
2021/06/02 11:01:04;;;;;;;5.87;5.40;;;20.50;24.10;;;;;;4976626;28;20796;-77
2021/06/02 11:03:31;;;;;;;4.90;4.57;;;20.50;24.10;;;;;;4976300;28;20445;-77
2021/06/02 11:06:05;;;;;;;4.90;4.70;;;20.50;24.10;;;;;;4976115;28;20473;-78
2021/06/02 11:09:04;;;;;;;5.03;4.63;;;20.50;24.10;;;;;;4975615;28;20449;-77
2021/06/02 11:11:36;;;;;;;5.00;4.70;;;20.50;24.10;;;;;;4973647;28;20437;-77
2021/06/02 11:14:14;;;;;;;4.83;4.63;;;20.40;24.10;;;;;;4971687;28;20424;-77
2021/06/02 11:17:00;;;;;;;5.10;4.80;;;20.40;24.20;;;;;;4959928;28;20875;-77
2021/06/02 11:19:30;;;;;;;5.37;5.07;;;20.40;24.20;;;;;;4975829;28;20417;-76
2021/06/02 11:21:55;;;;;;;4.63;4.43;;;20.40;24.20;;;;;;4975624;28;20829;-76
2021/06/02 11:24:30;;;;;;;5.00;4.70;;;20.40;24.30;;;;;;4975364;28;20438;-77
2021/06/02 11:27:19;;;;;;;4.67;4.33;;;20.40;24.30;;;;;;4971280;28;20190;-77
2021/06/02 11:29:56;;;;;;;4.40;4.10;;;20.40;24.30;;;;;;4970285;28;20814;-76
2021/06/02 11:32:22;;;;;;;5.20;4.90;;;20.50;23.90;;;;;;4959114;28;20441;-77
2021/06/02 11:34:51;;;;;;;5.10;4.67;;;20.50;23.50;;;;;;4973656;28;21011;-76
2021/06/02 11:37:22;;;;;;;5.40;4.90;;;20.50;23.10;;;;;;4956393;29;20505;-77
2021/06/02 11:39:53;;;;;;;5.43;5.00;;;20.60;23.10;;;;;;4957368;29;20490;-77
2021/06/02 11:42:46;;;;;;;5.40;5.00;;;20.60;22.90;;;;;;4956137;29;20434;-77
2021/06/02 11:45:17;;;;;;;5.30;4.90;;;20.60;23.20;;;;;;4944757;29;20922;-77
2021/06/02 11:47:45;;;;;;;5.37;4.97;;;20.60;23.10;;;;;;4956341;29;20466;-77
2021/06/02 11:50:14;;;;;;;7.30;5.10;;;20.70;23.30;;;;;;4957360;29;20426;-78
2021/06/02 11:52:41;;;;;;;5.47;5.10;;;20.60;22.90;;;;;;4956773;29;20435;-78
2021/06/02 11:55:09;;;;;;;4.97;4.77;;;20.70;22.90;;;;;;4957530;29;20407;-78
2021/06/02 11:57:44;;;;;;;5.37;5.03;;;20.70;22.80;;;;;;4956532;29;20411;-77
2021/06/02 12:00:12;;;;;;;5.10;4.90;;;20.70;22.30;;;;;;4957075;29;20406;-78
2021/06/02 12:02:39;;;;;;;5.30;4.90;;;20.70;22.40;;;;;;4957869;28;20811;-78
2021/06/02 12:05:20;;;;;;;8.00;4.60;;;20.70;22.70;;;;;;4939713;29;20447;-78
2021/06/02 12:07:56;;;;;;;4.40;4.20;;;20.70;23.00;;;;;;4956862;29;20481;-77
2021/06/02 12:10:29;;;;;;;5.07;4.77;;;20.70;23.10;;;;;;4956696;29;20423;-77
2021/06/02 12:12:55;;;;;;;5.27;4.97;;;20.70;23.30;;;;;;4955584;29;20430;-76
2021/06/02 12:15:21;;;;;;;4.70;4.50;;;20.70;23.10;;;;;;4954477;29;20413;-77
2021/06/02 12:17:49;;;;;;;5.80;5.33;;;20.70;22.70;;;;;;4955122;29;20172;-77
2021/06/02 12:20:17;;;;;;;5.27;4.97;;;20.70;22.80;;;;;;4956498;29;20418;-76
2021/06/02 12:22:44;;;;;;;5.70;5.00;;;20.70;22.60;;;;;;4937205;29;20526;-77
2021/06/02 12:25:16;;;;;;;4.87;4.57;;;20.70;22.20;;;;;;4954241;28;20430;-77
2021/06/02 12:27:56;;;;;;;5.10;4.80;;;20.70;22.20;;;;;;4954294;29;20406;-77
2021/06/02 12:30:24;;;;;;;5.07;4.77;;;20.70;22.20;;;;;;4954095;29;20423;-77
2021/06/02 12:32:55;;;;;;;5.57;5.10;;;20.70;22.60;;;;;;4954708;29;20434;-77
2021/06/02 12:35:34;;;;;;;4.67;4.37;;;20.80;22.90;;;;;;4954999;29;20766;-77
2021/06/02 12:38:03;;;;;;;5.00;4.70;;;20.80;22.70;;;;;;4954140;29;20497;-77
2021/06/02 12:40:29;;;;;;;5.23;4.90;;;20.80;22.30;;;;;;4963770;28;20433;-77
2021/06/02 12:42:55;;;;;;;5.07;4.73;;;20.80;22.30;;;;;;4976235;28;20442;-77
2021/06/02 12:45:25;;;;;;;5.23;4.83;;;20.80;22.20;;;;;;4974149;28;20481;-77
2021/06/02 12:47:51;;;;;;;4.60;4.30;;;20.80;22.30;;;;;;4940684;29;20705;-77
2021/06/02 12:50:38;;;;;;;5.20;4.90;;;20.80;22.20;;;;;;4955129;29;20513;-77
2021/06/02 12:53:05;;;;;;;5.50;5.10;;;20.80;22.20;;;;;;4954224;29;20434;-76
2021/06/02 12:55:40;;;;;;;5.37;4.97;;;20.80;22.20;;;;;;4953687;29;20497;-77
2021/06/02 12:58:10;;;;;;;6.10;4.97;;;20.80;22.20;;;;;;4937471;29;20418;-78
2021/06/02 13:00:47;;;;;;;6.10;5.50;;;20.80;22.20;;;;;;4954471;29;20457;-77
2021/06/02 13:03:21;;;;;;;5.73;5.33;;;20.80;22.20;;;;;;4954114;29;20457;-75
2021/06/02 13:05:48;;;;;;;5.13;4.83;;;20.80;22.60;;;;;;4955027;29;20441;-78
2021/06/02 13:08:14;;;;;;;5.07;4.67;;;20.80;22.60;;;;;;4938214;29;20462;-76
2021/06/02 13:10:41;;;;;;;6.77;5.43;;;20.80;23.00;;;;;;4956512;29;20422;-76
2021/06/02 13:13:10;;;;;;;6.13;5.60;;;20.80;22.60;;;;;;4953894;29;20442;-77
2021/06/02 13:15:37;;;;;;;6.53;6.00;;;20.80;22.30;;;;;;4955852;28;20494;-78
2021/06/02 13:18:04;;;;;;;7.03;6.47;;;20.80;22.20;;;;;;4957751;29;20423;-77
2021/06/02 13:20:31;;;;;;;6.20;5.73;;;20.80;22.30;;;;;;4957507;29;20890;-77
2021/06/02 13:23:26;;;;;;;6.70;6.20;;;20.80;22.30;;;;;;4957682;29;20485;-78
2021/06/02 13:26:07;;;;;;;6.63;6.03;;;20.80;22.20;;;;;;4956895;29;20481;-75
2021/06/02 13:28:42;;;;;;;6.70;6.20;;;20.80;22.40;;;;;;4957239;29;20465;-77
2021/06/02 13:31:09;;;;;;;9.13;5.40;;;20.80;22.70;;;;;;4958015;29;20466;-77
2021/06/02 13:33:43;;;;;;;6.47;5.83;;;20.80;22.60;;;;;;4957893;29;20874;-76